Time;durP1;ratioP1;P1;durP2;ratioP2;P2;SDS_P1;SDS_P2;PMS_P1;PMS_P2;Temp;Humidity;BMP_temperature;BMP_pressure;BME280_temperature;BME280_humidity;BME280_pressure;Samples;Min_cycle;Max_cycle;Signal;HPM_P1;HPM_P2
2022/05/19 00:00:22;;;;;;;8.77;5.75;;;;;;;10.28;76.15;100616.25;5034349;28;20041;-70
2022/05/19 00:02:47;;;;;;;11.25;6.25;;;;;;;10.00;78.22;100607.75;5032101;28;20112;-70
2022/05/19 00:05:13;;;;;;;9.00;6.70;;;;;;;9.61;79.81;100621.72;5032185;28;20167;-69
2022/05/19 00:07:39;;;;;;;13.85;7.10;;;;;;;9.31;81.07;100614.56;5034183;28;20037;-69
2022/05/19 00:10:05;;;;;;;11.93;7.85;;;;;;;8.99;81.80;100612.16;5033010;28;20025;-69
2022/05/19 00:12:31;;;;;;;16.15;8.35;;;;;;;9.09;81.47;100625.16;5033884;28;20101;-70
2022/05/19 00:14:59;;;;;;;12.80;8.05;;;;;;;9.17;81.27;100620.88;5033867;28;20175;-70
2022/05/19 00:17:25;;;;;;;9.02;7.53;;;;;;;8.98;81.48;100627.22;5049454;28;20119;-69
2022/05/19 00:19:51;;;;;;;7.78;6.57;;;;;;;8.78;82.35;100607.94;5031781;28;20113;-69
2022/05/19 00:22:17;;;;;;;16.98;6.97;;;;;;;8.41;83.67;100611.03;5031217;28;20054;-69
2022/05/19 00:24:43;;;;;;;9.93;7.07;;;;;;;8.19;85.42;100621.81;5049101;28;20480;-69
2022/05/19 00:27:08;;;;;;;9.73;6.93;;;;;;;8.42;85.06;100625.78;5033395;28;20029;-70
2022/05/19 00:29:34;;;;;;;8.75;6.35;;;;;;;8.70;83.94;100618.59;5033616;28;20021;-69
2022/05/19 00:31:59;;;;;;;8.85;6.28;;;;;;;8.70;83.17;100610.22;5033622;28;20033;-69
2022/05/19 00:34:25;;;;;;;11.07;8.18;;;;;;;8.61;83.00;100625.91;5032397;28;20565;-70
2022/05/19 00:36:58;;;;;;;9.70;7.57;;;;;;;7.97;85.88;100614.72;5032234;28;20021;-69
2022/05/19 00:39:24;;;;;;;11.35;8.30;;;;;;;7.69;87.27;100615.16;5033872;28;20024;-69
2022/05/19 00:42:43;;;;;;;10.90;6.32;;;;;;;7.84;86.31;100616.19;5033477;28;20030;-70
2022/05/19 00:44:35;;;;;;;8.70;6.53;;;;;;;7.42;86.86;100613.66;5032282;28;20437;-69
2022/05/19 00:47:01;;;;;;;7.07;5.85;;;;;;;7.05;88.18;100617.69;5048854;28;20087;-69
2022/05/19 00:49:40;;;;;;;8.55;7.45;;;;;;;6.96;88.43;100623.00;5033661;28;20021;-70
2022/05/19 00:52:19;;;;;;;7.72;6.55;;;;;;;6.74;88.70;100606.63;5033421;28;20026;-69
2022/05/19 00:54:52;;;;;;;9.07;6.65;;;;;;;6.51;88.83;100617.22;5032144;28;20017;-69
2022/05/19 00:57:23;;;;;;;12.80;8.25;;;;;;;6.35;90.02;100622.00;5032498;28;20040;-69
2022/05/19 00:59:51;;;;;;;9.57;7.60;;;;;;;6.20;91.00;100616.41;5030965;28;20025;-69
2022/05/19 01:02:21;;;;;;;17.52;8.68;;;;;;;6.15;91.45;100608.91;5033288;28;20042;-70
2022/05/19 01:04:59;;;;;;;10.52;7.55;;;;;;;6.31;91.95;100615.31;5031931;28;20035;-69
2022/05/19 01:07:32;;;;;;;9.20;6.75;;;;;;;6.41;90.93;100618.09;5033341;28;20032;-69
2022/05/19 01:09:58;;;;;;;9.50;7.38;;;;;;;6.45;91.18;100621.97;5033233;28;20028;-69
2022/05/19 01:12:26;;;;;;;10.93;6.63;;;;;;;6.46;90.43;100615.31;5032100;28;20097;-69
2022/05/19 01:14:52;;;;;;;8.82;6.85;;;;;;;6.64;90.03;100617.81;5032550;28;20025;-69
2022/05/19 01:17:18;;;;;;;12.18;6.13;;;;;;;6.87;89.50;100628.28;5032780;28;20025;-69
2022/05/19 01:19:55;;;;;;;10.38;5.97;;;;;;;6.99;88.53;100607.69;5032548;28;20036;-69
2022/05/19 01:22:35;;;;;;;10.77;6.55;;;;;;;6.79;88.59;100616.91;5033034;28;20112;-69
2022/05/19 01:25:17;;;;;;;20.27;8.63;;;;;;;6.54;89.89;100599.16;5032859;28;20025;-69
2022/05/19 01:27:42;;;;;;;9.02;6.90;;;;;;;6.58;90.72;100611.41;5032534;28;20032;-69
2022/05/19 01:30:10;;;;;;;9.23;6.53;;;;;;;6.84;89.83;100614.97;5032651;28;20021;-69
2022/05/19 01:32:36;;;;;;;9.65;7.32;;;;;;;6.95;89.46;100612.16;5032780;28;20033;-69
2022/05/19 01:35:03;;;;;;;10.13;7.60;;;;;;;6.96;89.71;100611.88;5015167;28;20034;-69
2022/05/19 01:37:28;;;;;;;10.23;7.38;;;;;;;6.94;89.61;100616.91;5030375;28;20116;-69
2022/05/19 01:40:00;;;;;;;9.15;7.50;;;;;;;7.08;88.93;100617.13;5031118;28;20494;-69
2022/05/19 01:43:18;;;;;;;11.00;6.53;;;;;;;7.34;88.13;100613.41;5031204;28;20060;-69
2022/05/19 01:46:03;;;;;;;8.02;6.15;;;;;;;7.59;86.49;100609.66;5032318;28;20021;-69
2022/05/19 01:48:43;;;;;;;10.52;5.60;;;;;;;7.71;85.47;100601.78;5012823;28;20037;-69
2022/05/19 01:51:34;;;;;;;10.43;6.40;;;;;;;7.64;85.41;100615.22;5012865;28;20029;-69
2022/05/19 01:54:04;;;;;;;14.40;5.47;;;;;;;7.62;85.36;100614.66;5006791;28;20059;-69
2022/05/19 01:56:52;;;;;;;8.10;5.80;;;;;;;7.64;85.31;100606.84;5021423;28;20037;-69
2022/05/19 01:59:26;;;;;;;11.60;6.03;;;;;;;7.63;85.53;100609.91;5031726;28;20055;-69
2022/05/19 02:02:05;;;;;;;11.98;6.45;;;;;;;7.50;85.60;100614.19;5030910;28;20029;-69
2022/05/19 02:04:45;;;;;;;11.43;6.18;;;;;;;7.21;87.00;100620.41;5032208;28;20056;-69
2022/05/19 02:07:14;;;;;;;7.95;5.65;;;;;;;7.08;86.95;100617.13;5030794;28;20532;-69
2022/05/19 02:09:51;;;;;;;9.07;6.18;;;;;;;7.41;86.78;100625.06;5032209;28;20041;-69
2022/05/19 02:12:17;;;;;;;7.68;5.57;;;;;;;7.51;85.76;100613.88;5032185;28;20475;-69
2022/05/19 02:14:54;;;;;;;8.90;5.45;;;;;;;7.41;85.51;100614.75;5025526;28;20053;-69
2022/05/19 02:17:23;;;;;;;19.15;7.00;;;;;;;7.36;85.75;100617.59;5027441;28;20037;-69
2022/05/19 02:19:53;;;;;;;8.10;5.05;;;;;;;7.22;86.02;100611.78;5032091;28;20025;-69
2022/05/19 02:22:21;;;;;;;13.07;5.70;;;;;;;7.41;85.71;100614.75;5030677;28;20408;-69
2022/05/19 02:25:16;;;;;;;11.15;5.63;;;;;;;7.45;85.32;100615.84;5031826;28;20839;-69
2022/05/19 02:27:59;;;;;;;6.95;4.88;;;;;;;7.39;84.81;100605.03;5026608;28;20128;-69
2022/05/19 02:30:32;;;;;;;7.40;5.18;;;;;;;7.62;84.60;100611.88;5031850;28;20037;-69
2022/05/19 02:32:58;;;;;;;11.57;4.93;;;;;;;7.82;83.62;100605.34;5030441;28;20029;-69
2022/05/19 02:35:24;;;;;;;11.25;4.78;;;;;;;7.61;83.59;100613.00;5031554;28;20403;-69
2022/05/19 02:37:51;;;;;;;20.50;5.65;;;;;;;7.52;83.83;100609.16;5031986;28;20044;-69
2022/05/19 02:40:19;;;;;;;13.80;5.43;;;;;;;7.27;83.96;100619.28;5030273;28;20064;-69
2022/05/19 02:42:45;;;;;;;9.68;4.78;;;;;;;7.36;84.60;100617.59;5031502;28;20025;-69
2022/05/19 02:45:13;;;;;;;5.85;4.65;;;;;;;7.53;83.70;100621.94;5031255;28;20028;-70
2022/05/19 02:47:39;;;;;;;11.90;4.78;;;;;;;7.68;83.28;100612.69;5031689;28;20041;-69
2022/05/19 02:50:06;;;;;;;6.85;4.28;;;;;;;7.64;82.70;100623.56;5031675;28;20025;-69
2022/05/19 02:52:31;;;;;;;14.93;4.53;;;;;;;7.33;83.72;100620.91;5016749;28;20021;-69
2022/05/19 02:54:57;;;;;;;5.25;4.40;;;;;;;7.23;84.36;100624.59;5013228;28;20069;-69
2022/05/19 02:57:22;;;;;;;8.45;4.55;;;;;;;7.14;84.32;100618.78;5031135;28;20037;-69
2022/05/19 02:59:48;;;;;;;8.65;4.07;;;;;;;6.99;84.26;100627.16;5031443;28;20029;-69
2022/05/19 03:02:14;;;;;;;8.18;4.00;;;;;;;6.78;84.93;100630.00;5030055;28;20025;-69
2022/05/19 03:04:39;;;;;;;6.90;4.35;;;;;;;6.70;85.83;100620.28;5029672;28;20697;-69
2022/05/19 03:07:06;;;;;;;8.25;5.28;;;;;;;6.73;85.51;100635.56;5031195;28;20025;-69
2022/05/19 03:09:32;;;;;;;7.68;4.55;;;;;;;6.85;85.17;100629.72;5031327;28;20026;-70
2022/05/19 03:11:57;;;;;;;11.95;4.30;;;;;;;6.79;84.48;100617.75;5046951;28;20040;-70
2022/05/19 03:14:22;;;;;;;5.15;4.10;;;;;;;6.91;84.24;100630.53;5035366;28;20483;-69
2022/05/19 03:16:48;;;;;;;6.40;4.60;;;;;;;6.96;84.13;100627.72;5035129;28;20499;-69
2022/05/19 03:19:15;;;;;;;5.32;4.18;;;;;;;7.04;84.20;100635.50;5034509;28;20045;-69
2022/05/19 03:21:42;;;;;;;13.05;4.10;;;;;;;7.14;83.85;100640.19;5033690;28;20419;-70
2022/05/19 03:24:10;;;;;;;8.10;4.32;;;;;;;6.79;83.69;100630.81;5035441;28;20452;-69
2022/05/19 03:26:36;;;;;;;10.30;4.35;;;;;;;6.57;84.48;100637.53;5031155;28;20026;-69
2022/05/19 03:29:03;;;;;;;7.80;5.50;;;;;;;6.57;84.87;100645.84;5030486;28;20029;-69
2022/05/19 03:31:28;;;;;;;9.65;6.40;;;;;;;6.49;84.87;100649.22;5015606;28;20097;-70
2022/05/19 03:33:54;;;;;;;10.48;5.50;;;;;;;6.57;85.28;100652.28;5015414;28;20108;-69
2022/05/19 03:36:20;;;;;;;8.20;4.90;;;;;;;6.62;84.66;100647.81;5022496;28;20096;-69
2022/05/19 03:38:46;;;;;;;19.83;5.47;;;;;;;6.56;85.07;100647.81;5033492;28;20030;-69
2022/05/19 03:41:12;;;;;;;6.75;4.03;;;;;;;6.55;85.75;100654.50;5034115;28;20021;-69
2022/05/19 03:43:37;;;;;;;5.28;4.55;;;;;;;6.64;85.73;100651.16;5033598;28;20033;-69
2022/05/19 03:49:25;;;;;;;8.65;4.82;;;;;;;6.69;85.46;100646.41;5157135;23;20065;-87
2022/05/19 03:51:50;;;;;;;4.75;3.83;;;;;;;6.78;85.08;100646.69;5002810;28;20109;-87
2022/05/19 03:54:16;;;;;;;6.22;3.88;;;;;;;6.76;85.57;100648.94;4995065;28;20038;-87
2022/05/19 03:56:41;;;;;;;8.88;4.88;;;;;;;6.83;85.41;100640.28;5006164;28;20084;-86
2022/05/19 03:59:07;;;;;;;7.10;5.40;;;;;;;6.92;85.28;100660.81;5014634;28;20029;-86
2022/05/19 04:01:33;;;;;;;7.75;3.78;;;;;;;7.03;84.91;100661.66;5014563;28;20022;-87
2022/05/19 04:03:59;;;;;;;9.35;3.88;;;;;;;7.09;84.65;100660.50;5014241;28;20033;-86
2022/05/19 04:06:25;;;;;;;7.22;4.40;;;;;;;7.35;84.50;100671.56;5014196;28;20432;-86
2022/05/19 04:08:51;;;;;;;6.72;4.35;;;;;;;7.40;83.46;100668.78;5014459;28;20026;-86
2022/05/19 04:11:17;;;;;;;12.85;4.40;;;;;;;7.45;83.26;100652.03;5014330;28;20032;-86
2022/05/19 04:13:43;;;;;;;6.25;3.63;;;;;;;7.58;82.33;100664.53;5014218;28;20508;-87
2022/05/19 04:16:09;;;;;;;4.85;4.07;;;;;;;7.64;81.99;100667.28;5014378;28;20056;-87
2022/05/19 04:18:35;;;;;;;8.95;4.00;;;;;;;7.85;81.53;100663.25;5014150;28;20046;-86
2022/05/19 04:21:01;;;;;;;17.67;5.40;;;;;;;7.85;80.77;100648.50;5010438;28;20022;-87
2022/05/19 04:23:27;;;;;;;7.45;5.00;;;;;;;7.99;80.18;100666.25;4993895;28;20485;-86
2022/05/19 04:25:55;;;;;;;6.60;4.05;;;;;;;7.94;80.28;100657.09;4994381;28;20018;-87
2022/05/19 04:28:21;;;;;;;14.50;4.35;;;;;;;8.09;79.77;100667.31;4994488;28;20026;-87
2022/05/19 04:30:47;;;;;;;7.85;3.75;;;;;;;8.09;80.70;100668.13;4994400;28;20105;-87
2022/05/19 04:33:12;;;;;;;4.85;3.30;;;;;;;7.90;80.48;100653.19;4994396;28;20022;-88
2022/05/19 04:35:39;;;;;;;6.28;4.25;;;;;;;8.00;80.25;100655.91;4994282;28;20031;-87
2022/05/19 04:38:16;;;;;;;26.70;5.57;;;;;;;8.21;80.64;100650.22;5010595;28;20117;-87
2022/05/19 04:40:50;;;;;;;15.25;4.55;;;;;;;8.24;80.57;100658.84;4994191;28;20475;-87
2022/05/19 04:43:21;;;;;;;10.80;4.90;;;;;;;8.38;80.03;100660.97;4993902;28;20029;-87
2022/05/19 04:45:52;;;;;;;13.32;4.10;;;;;;;8.48;79.80;100655.31;4994133;28;20023;-87
2022/05/19 04:48:18;;;;;;;15.13;6.13;;;;;;;8.47;79.80;100659.22;4994020;28;20030;-87
2022/05/19 04:50:43;;;;;;;9.02;4.50;;;;;;;8.49;79.79;100658.91;5010147;28;20827;-87
2022/05/19 04:53:09;;;;;;;13.93;4.65;;;;;;;8.39;79.59;100654.25;5010367;28;20121;-88
2022/05/19 04:55:37;;;;;;;10.02;3.83;;;;;;;8.45;79.22;100658.69;4993936;28;20093;-87
2022/05/19 04:58:02;;;;;;;4.20;3.72;;;;;;;8.47;79.75;100648.06;5002033;28;20027;-87
2022/05/19 05:00:28;;;;;;;12.57;4.50;;;;;;;8.52;79.05;100653.63;4995172;28;20492;-87
2022/05/19 05:02:53;;;;;;;10.05;3.40;;;;;;;8.70;79.83;100663.22;5010065;28;20026;-87
2022/05/19 05:05:19;;;;;;;8.70;3.15;;;;;;;9.01;79.37;100664.06;5032470;28;20022;-87
2022/05/19 05:07:45;;;;;;;8.00;3.42;;;;;;;9.23;78.92;100664.38;5013879;28;20101;-86
2022/05/19 05:10:11;;;;;;;7.57;3.95;;;;;;;9.30;78.02;100669.59;5012336;28;20407;-87
2022/05/19 05:12:37;;;;;;;5.07;3.30;;;;;;;9.39;78.28;100673.38;5001323;28;20023;-87
2022/05/19 05:15:03;;;;;;;9.00;3.88;;;;;;;9.44;78.25;100671.66;5010078;28;20029;-87
2022/05/19 05:17:28;;;;;;;5.10;3.13;;;;;;;9.39;78.44;100664.19;5012796;28;20571;-88
2022/05/19 05:19:54;;;;;;;4.45;3.47;;;;;;;9.52;78.72;100660.66;5011633;28;20125;-87
2022/05/19 05:22:19;;;;;;;7.45;3.25;;;;;;;9.65;78.64;100650.72;5010903;28;20032;-86
2022/05/19 05:24:45;;;;;;;4.78;3.58;;;;;;;9.54;77.26;100615.69;5012005;28;20025;-88
2022/05/19 05:27:11;;;;;;;9.93;4.35;;;;;;;9.75;76.95;100660.06;5012619;28;20033;-89
2022/05/19 05:29:36;;;;;;;5.70;3.88;;;;;;;9.77;76.83;100667.03;5007085;28;20026;-88
2022/05/19 05:32:03;;;;;;;6.50;3.72;;;;;;;9.94;77.38;100655.34;5001384;28;20026;-88
2022/05/19 05:34:28;;;;;;;4.50;3.20;;;;;;;9.90;76.77;100636.69;4995142;28;20041;-89
2022/05/19 05:36:54;;;;;;;8.13;3.63;;;;;;;10.06;76.59;100651.25;5012667;28;20030;-91
2022/05/19 05:39:20;;;;;;;7.38;3.88;;;;;;;9.99;77.16;100643.25;5012404;28;20036;-87
2022/05/19 05:41:45;;;;;;;5.00;3.28;;;;;;;10.16;76.62;100667.88;5012559;28;20088;-88
2022/05/19 05:44:11;;;;;;;17.15;4.70;;;;;;;10.29;77.67;100662.66;5012093;28;20030;-86
2022/05/19 05:46:37;;;;;;;6.43;3.30;;;;;;;10.29;76.97;100626.31;5012232;28;20029;-87
2022/05/19 05:49:03;;;;;;;6.95;3.30;;;;;;;10.88;76.43;100665.88;5011711;28;20145;-85
2022/05/19 05:51:29;;;;;;;4.38;3.15;;;;;;;10.79;76.52;100637.78;5012414;28;20107;-85
2022/05/19 05:53:54;;;;;;;7.80;3.50;;;;;;;11.28;74.54;100665.41;5011392;28;20495;-84
2022/05/19 05:56:21;;;;;;;22.98;4.38;;;;;;;11.54;73.32;100658.47;5001242;28;20038;-86
2022/05/19 05:58:47;;;;;;;5.20;3.50;;;;;;;11.55;71.81;100640.50;4991764;28;20022;-86
2022/05/19 06:01:16;;;;;;;8.02;3.90;;;;;;;11.90;71.68;100661.28;4993837;28;20022;-86
2022/05/19 06:03:41;;;;;;;6.20;4.07;;;;;;;11.74;70.90;100662.78;4992547;28;20050;-85
2022/05/19 06:06:07;;;;;;;6.13;3.60;;;;;;;11.73;71.74;100658.34;4992171;28;20417;-86
2022/05/19 06:08:33;;;;;;;6.70;3.40;;;;;;;11.84;70.15;100658.94;5011534;28;20083;-86
2022/05/19 06:10:59;;;;;;;7.22;3.05;;;;;;;11.87;68.01;100673.16;5011826;28;20025;-87
2022/05/19 06:13:25;;;;;;;5.07;2.63;;;;;;;12.15;69.50;100669.47;5011986;28;20025;-86
2022/05/19 06:15:51;;;;;;;5.75;2.97;;;;;;;12.13;68.08;100624.91;5012616;28;20030;-86
2022/05/19 06:18:17;;;;;;;8.35;4.00;;;;;;;12.51;67.97;100657.38;5011527;28;20037;-86
2022/05/19 06:20:43;;;;;;;7.22;2.95;;;;;;;12.51;64.81;100654.59;5011541;28;20079;-86
2022/05/19 06:23:10;;;;;;;11.80;2.53;;;;;;;12.44;64.76;100668.22;5011560;28;20021;-85
2022/05/19 06:25:36;;;;;;;4.47;2.50;;;;;;;12.47;64.05;100653.53;5011300;28;20080;-85
2022/05/19 06:28:01;;;;;;;4.22;2.30;;;;;;;12.67;65.07;100665.41;5011353;28;20404;-85
2022/05/19 06:30:28;;;;;;;3.88;3.30;;;;;;;12.95;63.89;100654.84;5011172;28;20045;-85
2022/05/19 06:32:55;;;;;;;5.45;2.70;;;;;;;12.77;63.97;100628.66;5011050;28;20030;-85
2022/05/19 06:35:23;;;;;;;5.43;4.22;;;;;;;12.96;62.28;100658.47;5011069;28;20030;-85
2022/05/19 06:37:49;;;;;;;7.05;3.60;;;;;;;13.13;64.09;100664.19;5006194;28;20029;-85
2022/05/19 06:40:16;;;;;;;8.82;3.15;;;;;;;13.11;64.16;100627.19;5011125;28;20053;-86
2022/05/19 06:42:43;;;;;;;4.97;2.10;;;;;;;12.94;60.06;100639.16;5012454;28;20466;-86
2022/05/19 06:45:11;;;;;;;10.52;3.50;;;;;;;13.12;64.04;100670.13;5010964;28;20022;-85
2022/05/19 06:47:36;;;;;;;4.03;2.70;;;;;;;13.23;62.70;100657.44;5011127;28;20484;-85
2022/05/19 06:50:04;;;;;;;3.45;2.25;;;;;;;13.57;62.28;100658.75;5012057;28;20100;-85
2022/05/19 06:52:32;;;;;;;9.65;3.17;;;;;;;13.80;60.06;100667.09;5012092;28;20033;-85
2022/05/19 06:55:00;;;;;;;6.78;2.92;;;;;;;13.64;59.23;100658.28;5012166;28;20026;-86
2022/05/19 06:57:27;;;;;;;4.47;2.42;;;;;;;13.65;61.29;100661.94;5010856;28;20496;-85
2022/05/19 06:59:53;;;;;;;6.82;2.53;;;;;;;13.82;60.35;100645.06;5010769;28;20057;-85
2022/05/19 07:02:23;;;;;;;4.75;2.63;;;;;;;13.94;62.18;100646.41;5010820;28;20060;-85
2022/05/19 07:04:49;;;;;;;4.72;2.50;;;;;;;14.10;62.35;100653.22;5010634;28;20076;-86
2022/05/19 07:07:15;;;;;;;4.85;2.60;;;;;;;14.30;60.45;100656.53;5012138;28;20018;-86
2022/05/19 07:09:41;;;;;;;6.70;1.95;;;;;;;14.43;58.99;100635.81;5019167;28;20030;-85
2022/05/19 07:12:09;;;;;;;6.18;2.50;;;;;;;14.55;56.88;100649.22;5010690;28;20040;-85
2022/05/19 07:14:35;;;;;;;7.45;3.15;;;;;;;14.13;59.63;100640.47;5011829;28;20022;-85
2022/05/19 07:17:01;;;;;;;9.05;2.60;;;;;;;14.40;55.02;100636.50;5011914;28;20125;-85
2022/05/19 07:22:17;;;;;;;4.18;1.80;;;;;;;14.62;54.37;100651.53;5012193;28;20543;-85
2022/05/19 07:24:43;;;;;;;3.55;2.00;;;;;;;14.65;53.60;100644.38;5010820;28;20025;-89
2022/05/19 07:27:08;;;;;;;10.27;2.90;;;;;;;14.61;55.32;100635.81;5001301;28;20432;-86
2022/05/19 07:29:34;;;;;;;4.35;2.13;;;;;;;14.99;53.95;100648.31;4998620;28;20030;-86
2022/05/19 07:32:01;;;;;;;5.15;2.55;;;;;;;14.95;53.46;100644.53;5010487;28;20029;-85
2022/05/19 07:34:29;;;;;;;5.18;1.70;;;;;;;15.48;52.97;100647.13;5011222;28;20029;-85
2022/05/19 07:36:55;;;;;;;4.57;1.88;;;;;;;15.76;50.90;100641.81;5008476;28;20045;-86
2022/05/19 07:39:22;;;;;;;8.52;2.53;;;;;;;15.90;46.35;100646.38;5011650;28;20026;-86
2022/05/19 07:41:48;;;;;;;9.10;2.20;;;;;;;15.89;49.11;100603.22;5009358;28;20065;-85
2022/05/19 07:44:15;;;;;;;6.00;1.55;;;;;;;16.33;44.06;100638.75;5009954;28;20022;-86
2022/05/19 07:46:42;;;;;;;5.65;1.73;;;;;;;16.11;45.13;100637.94;5011296;28;20021;-85
2022/05/19 07:49:08;;;;;;;2.97;2.00;;;;;;;15.98;49.21;100639.88;5009895;28;20054;-86
2022/05/19 07:51:36;;;;;;;4.97;1.75;;;;;;;16.22;48.85;100641.97;5011518;28;20488;-85
2022/05/19 07:54:08;;;;;;;5.15;2.10;;;;;;;16.47;45.73;100646.94;5011310;28;20394;-84
2022/05/19 07:56:34;;;;;;;5.25;1.70;;;;;;;16.30;44.64;100637.47;5011312;28;20037;-85
2022/05/19 07:59:01;;;;;;;10.15;1.67;;;;;;;16.45;46.66;100630.31;5011971;28;21857;-85
2022/05/19 08:01:27;;;;;;;4.63;1.92;;;;;;;16.58;47.30;100602.13;5013059;28;20029;-84
2022/05/19 08:03:53;;;;;;;3.17;2.05;;;;;;;16.66;43.16;100619.00;5013634;28;20025;-85
2022/05/19 08:06:18;;;;;;;11.38;1.88;;;;;;;16.59;44.86;100600.94;5013496;28;20037;-86
2022/05/19 08:08:45;;;;;;;6.65;1.67;;;;;;;16.87;44.70;100625.75;5013372;28;20439;-85
2022/05/19 08:11:11;;;;;;;3.35;1.80;;;;;;;16.74;43.54;100637.03;5013464;28;20025;-86
2022/05/19 08:16:22;;;;;;;2.08;1.70;;;;;;;16.81;41.21;100634.44;5014639;28;20060;-87
2022/05/19 08:18:48;;;;;;;14.77;2.15;;;;;;;16.79;39.85;100633.16;5012776;28;20030;-86
2022/05/19 08:21:14;;;;;;;6.40;1.70;;;;;;;17.12;41.45;100627.47;5015112;28;20080;-86
2022/05/19 08:23:45;;;;;;;6.75;1.85;;;;;;;17.14;39.73;100617.81;5013405;28;20025;-85
2022/05/19 08:26:11;;;;;;;7.70;3.55;;;;;;;17.40;41.87;100617.47;5013939;28;20018;-88
2022/05/19 08:28:42;;;;;;;5.00;1.30;;;;;;;17.87;38.52;100630.25;5013574;28;20056;-84
2022/05/19 08:31:14;;;;;;;5.05;1.55;;;;;;;17.96;38.43;100632.94;4998936;28;20394;-87
2022/05/19 08:33:42;;;;;;;3.45;1.40;;;;;;;18.03;39.95;100593.56;4993538;28;20022;-86
2022/05/19 08:36:09;;;;;;;2.75;1.20;;;;;;;18.33;35.49;100626.38;4993166;28;20027;-87
2022/05/19 08:38:35;;;;;;;2.70;1.17;;;;;;;18.13;34.41;100620.53;5002759;28;20057;-86
2022/05/19 08:41:11;;;;;;;9.35;1.50;;;;;;;18.55;35.13;100624.19;5014067;28;20468;-86
2022/05/19 08:43:44;;;;;;;6.95;2.28;;;;;;;18.61;36.33;100617.88;4993582;28;20037;-86
2022/05/19 08:46:18;;;;;;;4.55;1.20;;;;;;;18.58;35.18;100614.94;4995041;28;20034;-87
2022/05/19 08:48:45;;;;;;;10.98;2.25;;;;;;;18.49;37.78;100613.09;4993674;28;20116;-86
2022/05/19 08:51:12;;;;;;;4.05;1.40;;;;;;;18.71;37.07;100590.22;5002936;28;20061;-87
2022/05/19 08:53:41;;;;;;;1.77;1.30;;;;;;;19.07;36.13;100599.69;5012483;28;20021;-88
2022/05/19 08:56:25;;;;;;;2.85;1.10;;;;;;;19.08;32.33;100616.31;5012880;28;20048;-87
2022/05/19 08:59:03;;;;;;;7.25;1.50;;;;;;;18.80;32.41;100610.66;5013001;28;20034;-87
2022/05/19 09:01:34;;;;;;;2.25;1.33;;;;;;;18.43;32.18;100622.22;5013137;28;20044;-88
2022/05/19 09:04:23;;;;;;;2.20;1.17;;;;;;;18.26;32.24;100627.00;5013053;28;20036;-88
2022/05/19 09:09:57;;;;;;;1.80;0.98;;;;;;;18.98;31.26;100596.16;5002347;28;20037;-87
2022/05/19 09:12:25;;;;;;;4.38;1.10;;;;;;;19.21;31.86;100587.84;5006973;28;20029;-87
2022/05/19 09:14:52;;;;;;;17.65;1.88;;;;;;;19.32;32.09;100594.63;5012804;28;20203;-86
2022/05/19 09:17:27;;;;;;;3.35;1.23;;;;;;;19.22;32.19;100603.69;5001256;28;20242;-88
2022/05/19 09:19:59;;;;;;;4.60;1.50;;;;;;;19.03;30.72;100602.41;5008308;28;20033;-86
2022/05/19 09:22:33;;;;;;;5.78;1.23;;;;;;;19.51;32.49;100595.88;5012892;28;20550;-87
2022/05/19 09:25:03;;;;;;;1.98;1.20;;;;;;;19.27;31.51;100588.41;5015112;28;20028;-86
2022/05/19 09:27:29;;;;;;;3.60;1.10;;;;;;;19.06;31.75;100584.66;5004101;28;20124;-87
2022/05/19 09:29:57;;;;;;;7.30;1.60;;;;;;;18.80;30.72;100590.84;4994287;28;20088;-86
2022/05/19 09:32:37;;;;;;;5.05;1.33;;;;;;;19.01;30.72;100584.13;5009442;28;20481;-87
2022/05/19 09:35:17;;;;;;;3.65;1.58;;;;;;;19.26;33.07;100578.25;5024096;28;20030;-88
2022/05/19 09:38:03;;;;;;;1.80;1.38;;;;;;;19.48;31.63;100568.22;4995406;28;20036;-84
2022/05/19 09:40:33;;;;;;;3.92;1.23;;;;;;;19.75;30.70;100571.28;5003529;28;20058;-87
2022/05/19 09:43:06;;;;;;;5.47;1.45;;;;;;;19.91;31.65;100572.03;5002579;28;20087;-86
2022/05/19 09:45:38;;;;;;;4.25;1.30;;;;;;;19.39;30.45;100576.94;5011608;28;20033;-85
2022/05/19 09:48:07;;;;;;;1.95;1.13;;;;;;;19.69;31.17;100561.41;5011694;28;20032;-85
2022/05/19 09:50:47;;;;;;;2.25;1.60;;;;;;;20.12;30.68;100568.06;5011522;28;20054;-84
2022/05/19 09:53:22;;;;;;;2.90;1.05;;;;;;;20.52;31.58;100565.16;5010603;28;20026;-85
2022/05/19 09:56:00;;;;;;;1.70;1.00;;;;;;;20.73;29.24;100553.34;5009870;28;20038;-85
2022/05/19 09:58:30;;;;;;;2.90;1.35;;;;;;;20.46;30.26;100556.97;5003424;28;20432;-85
2022/05/19 10:01:04;;;;;;;5.50;1.45;;;;;;;20.47;29.96;100555.75;4990463;28;20485;-84
2022/05/19 10:03:42;;;;;;;22.52;2.67;;;;;;;20.70;30.07;100559.81;4990263;28;20030;-85
2022/05/19 10:06:33;;;;;;;1.75;1.30;;;;;;;20.67;28.81;100552.03;5009507;28;20405;-85
2022/05/19 10:09:11;;;;;;;5.55;1.88;;;;;;;20.67;28.89;100541.47;5008069;28;20492;-85
2022/05/19 10:11:48;;;;;;;8.10;1.70;;;;;;;20.73;28.51;100539.97;5009614;28;20036;-87
2022/05/19 10:14:25;;;;;;;1.77;1.20;;;;;;;20.64;29.80;100538.59;5012681;28;20021;-86
2022/05/19 10:17:04;;;;;;;2.55;1.40;;;;;;;20.61;28.65;100538.13;4995543;28;20045;-87
2022/05/19 10:19:36;;;;;;;2.45;1.17;;;;;;;20.90;29.36;100537.84;4993149;28;20045;-87
2022/05/19 10:22:11;;;;;;;3.85;1.52;;;;;;;20.96;30.67;100530.66;5007539;28;20091;-85
2022/05/19 10:25:10;;;;;;;2.70;1.50;;;;;;;20.77;29.59;100529.50;5011553;28;20455;-85
2022/05/19 10:31:06;;;;;;;2.17;1.40;;;;;;;21.07;28.50;100527.16;5012586;28;20092;-85
2022/05/19 10:34:06;;;;;;;1.80;1.23;;;;;;;21.14;28.07;100504.50;5011481;28;20026;-85
2022/05/19 10:36:50;;;;;;;2.47;1.23;;;;;;;21.50;27.83;100515.63;5014369;28;20054;-85
2022/05/19 10:39:32;;;;;;;2.13;1.77;;;;;;;20.94;28.68;100510.31;5010775;28;20034;-85
2022/05/19 10:42:21;;;;;;;2.95;1.40;;;;;;;20.96;28.22;100507.06;5010196;28;20029;-85
2022/05/19 10:45:27;;;;;;;6.72;1.80;;;;;;;21.42;28.75;100501.28;5010682;28;20026;-85
2022/05/19 10:48:03;;;;;;;1.60;1.48;;;;;;;21.34;29.18;100495.88;5008006;28;20492;-85
2022/05/19 10:50:38;;;;;;;5.63;2.03;;;;;;;21.43;29.23;100497.22;5009979;28;20068;-86
2022/05/19 10:53:42;;;;;;;3.40;1.63;;;;;;;21.52;27.57;100487.59;5010373;28;20037;-85
2022/05/19 10:56:43;;;;;;;7.82;1.33;;;;;;;21.66;28.81;100502.03;5010746;28;20018;-85
2022/05/19 10:59:20;;;;;;;;;;;;;;;21.62;28.18;100500.31;5010760;28;20041;-86
2022/05/19 11:01:52;;;;;;;;;;;;;;;21.79;28.18;100487.56;4991509;28;19956;-85
2022/05/19 11:04:20;;;;;;;;;;;;;;;20.75;29.35;100494.09;4997820;28;20406;-86
2022/05/19 11:07:12;;;;;;;;;;;;;;;21.01;29.55;100481.16;5009852;28;19913;-85
2022/05/19 11:09:48;;;;;;;;;;;;;;;21.46;28.79;100482.22;4993194;28;19976;-85
2022/05/19 11:12:13;;;;;;;;;;;;;;;21.24;28.42;100483.94;5010746;28;19909;-85
2022/05/19 11:14:43;;;;;;;;;;;;;;;20.87;28.39;100476.88;5010500;28;20330;-85
2022/05/19 11:17:17;;;;;;;;;;;;;;;21.45;27.24;100472.03;5010700;28;20021;-84
2022/05/19 11:19:49;;;;;;;;;;;;;;;21.60;27.48;100470.22;5009693;28;21990;-85
2022/05/19 11:22:17;;;;;;;;;;;;;;;21.87;27.91;100464.47;5010507;28;20030;-85
2022/05/19 11:27:32;;;;;;;;;;;;;;;21.94;26.93;100452.34;5005882;28;20350;-85
2022/05/19 11:30:00;;;;;;;;;;;;;;;22.23;26.72;100440.44;5006241;28;20414;-84
2022/05/19 11:32:33;;;;;;;;;;;;;;;22.46;26.97;100439.41;5001690;28;19913;-84
2022/05/19 11:35:05;;;;;;;;;;;;;;;22.71;27.57;100439.69;5013617;28;19968;-85
2022/05/19 11:37:33;;;;;;;;;;;;;;;22.29;26.22;100439.69;5014756;28;19920;-85
2022/05/19 11:40:15;;;;;;;;;;;;;;;22.04;26.10;100439.44;4999034;28;19917;-86
2022/05/19 11:42:46;;;;;;;;;;;;;;;22.48;26.77;100423.59;5004548;28;19925;-86
2022/05/19 11:45:16;;;;;;;;;;;;;;;22.36;26.44;100421.03;5005317;28;19967;-85
2022/05/19 11:56:16;;;;;;;;;;;;;;;22.04;28.04;100415.81;4998632;28;19987;-85
2022/05/19 11:58:42;;;;;;;;;;;;;;;22.10;27.10;100422.81;5006641;28;20292;-85
2022/05/19 12:01:11;;;;;;;;;;;;;;;22.32;26.89;100412.44;4994682;28;19932;-84
2022/05/19 12:04:12;;;;;;;;;;;;;;;22.53;26.17;100411.81;5011095;28;19943;-84
2022/05/19 12:06:54;;;;;;;;;;;;;;;22.50;25.65;100401.22;4962137;28;20016;-84
2022/05/19 12:09:22;;;;;;;;;;;;;;;22.54;26.24;100399.22;4988870;28;19971;-83
2022/05/19 12:11:52;;;;;;;;;;;;;;;22.64;25.58;100397.69;4999832;28;20024;-84
2022/05/19 12:14:31;;;;;;;;;;;;;;;22.85;25.72;100397.00;5013658;28;20358;-83